createdAt,value
2022-12-18T00:01:49.924Z,-2.69
2022-12-18T00:04:52.657Z,-2.79
2022-12-18T00:07:55.495Z,-2.89
2022-12-18T00:11:07.066Z,-2.96
2022-12-18T00:14:13.016Z,-2.91
2022-12-18T00:17:15.789Z,-2.76
2022-12-18T00:20:22.844Z,-2.68
2022-12-18T00:23:25.814Z,-2.73
2022-12-18T00:26:34.474Z,-2.94
2022-12-18T00:29:41.448Z,-3.02
2022-12-18T00:32:44.300Z,-3.09
2022-12-18T00:35:47.090Z,-2.90
2022-12-18T00:38:50.234Z,-3.03
2022-12-18T00:42:12.796Z,-3.20
2022-12-18T00:45:16.075Z,-3.12
2022-12-18T00:48:19.159Z,-3.08
2022-12-18T00:51:21.990Z,-3.11
2022-12-18T00:54:25.080Z,-3.18
2022-12-18T00:57:27.842Z,-3.16
2022-12-18T01:00:30.637Z,-3.08
2022-12-18T01:03:34.038Z,-3.10
2022-12-18T01:06:37.077Z,-3.09
2022-12-18T01:09:39.964Z,-3.16
2022-12-18T01:12:42.904Z,-3.30
2022-12-18T01:15:52.825Z,-3.36
2022-12-18T01:18:56.601Z,-3.32
2022-12-18T01:22:00.160Z,-3.39
2022-12-18T01:25:03.766Z,-3.53
2022-12-18T01:28:07.794Z,-3.48
2022-12-18T01:31:26.272Z,-3.39
2022-12-18T01:34:29.123Z,-3.41
2022-12-18T01:37:32.183Z,-3.49
2022-12-18T01:40:34.957Z,-3.55
2022-12-18T01:43:49.840Z,-3.55
2022-12-18T01:46:52.552Z,-3.40
2022-12-18T01:49:56.888Z,-3.44
2022-12-18T01:53:21.817Z,-3.11
2022-12-18T01:56:24.893Z,-2.91
2022-12-18T01:59:29.869Z,-2.93
2022-12-18T02:02:32.783Z,-2.92
2022-12-18T02:06:01.371Z,-2.81
2022-12-18T02:09:21.834Z,-2.95
2022-12-18T02:12:41.328Z,-2.85
2022-12-18T02:16:08.319Z,-2.99
2022-12-18T02:19:32.783Z,-3.20
2022-12-18T02:23:05.588Z,-3.28
2022-12-18T02:26:35.854Z,-3.18
2022-12-18T02:29:45.544Z,-3.24
2022-12-18T02:32:54.939Z,-3.41
2022-12-18T02:35:59.515Z,-3.41
2022-12-18T02:39:05.436Z,-3.29
2022-12-18T02:42:11.239Z,-3.46
2022-12-18T02:45:14.191Z,-3.44
2022-12-18T02:48:20.019Z,-3.45
2022-12-18T02:51:32.387Z,-3.41
2022-12-18T02:54:51.488Z,-3.52
2022-12-18T02:57:57.145Z,-3.41
2022-12-18T03:01:19.509Z,-3.53
2022-12-18T03:04:29.100Z,-3.67
2022-12-18T03:08:00.860Z,-3.68
2022-12-18T03:11:10.304Z,-3.78
2022-12-18T03:14:17.849Z,-3.80
2022-12-18T03:17:26.503Z,-3.89
2022-12-18T03:20:32.597Z,-3.91
2022-12-18T03:23:42.480Z,-3.87
2022-12-18T03:26:50.554Z,-3.84
2022-12-18T03:30:08.432Z,-3.85
2022-12-18T03:33:20.785Z,-3.95
2022-12-18T03:36:26.199Z,-3.98
2022-12-18T03:39:29.164Z,-3.94
2022-12-18T03:43:01.974Z,-3.96
2022-12-18T03:46:16.793Z,-4.04
2022-12-18T03:49:36.227Z,-3.96
2022-12-18T03:52:47.630Z,-4.08
2022-12-18T03:55:53.032Z,-4.06
2022-12-18T03:58:57.809Z,-4.09
2022-12-18T04:02:05.246Z,-4.06
2022-12-18T04:05:09.676Z,-3.98
2022-12-18T04:08:16.130Z,-3.96
2022-12-18T04:11:26.046Z,-3.96
2022-12-18T04:14:29.884Z,-3.99
2022-12-18T04:17:33.500Z,-4.06
2022-12-18T04:20:37.296Z,-4.07
2022-12-18T04:23:40.907Z,-3.96
2022-12-18T04:26:44.252Z,-3.95
2022-12-18T04:29:51.559Z,-4.10
2022-12-18T04:32:54.752Z,-4.10
2022-12-18T04:35:59.070Z,-4.10
2022-12-18T04:39:02.564Z,-4.18
2022-12-18T04:42:05.670Z,-4.27
2022-12-18T04:45:09.488Z,-4.24
2022-12-18T04:48:13.522Z,-4.23
2022-12-18T04:51:16.352Z,-4.21
2022-12-18T04:54:19.292Z,-4.22
2022-12-18T04:57:22.072Z,-4.28
2022-12-18T05:00:24.852Z,-4.11
2022-12-18T05:03:28.535Z,-4.12
2022-12-18T05:06:31.387Z,-4.04
2022-12-18T05:09:34.257Z,-3.99
2022-12-18T05:12:57.412Z,-4.08
2022-12-18T05:16:00.321Z,-4.11
2022-12-18T05:19:03.492Z,-4.09
2022-12-18T05:22:09.597Z,-4.23
2022-12-18T05:25:12.754Z,-4.12
2022-12-18T05:28:15.576Z,-4.18
2022-12-18T05:31:18.836Z,-4.18
2022-12-18T05:34:21.621Z,-4.18
2022-12-18T05:37:24.699Z,-4.08
2022-12-18T05:40:27.486Z,-4.04
2022-12-18T05:43:31.311Z,-3.94
2022-12-18T05:46:34.102Z,-3.99
2022-12-18T05:49:36.958Z,-4.10
2022-12-18T05:52:39.655Z,-4.14
2022-12-18T05:55:43.478Z,-4.27
2022-12-18T05:58:46.931Z,-4.29
2022-12-18T06:01:52.352Z,-4.39
2022-12-18T06:04:55.191Z,-4.43
2022-12-18T06:07:57.986Z,-4.44
2022-12-18T06:11:00.719Z,-4.40
2022-12-18T06:14:05.034Z,-4.38
2022-12-18T06:17:07.851Z,-4.29
2022-12-18T06:20:11.030Z,-4.26
2022-12-18T06:23:13.797Z,-4.26
2022-12-18T06:26:16.529Z,-4.28
2022-12-18T06:29:19.433Z,-4.28
2022-12-18T06:32:23.522Z,-4.21
2022-12-18T06:35:26.377Z,-4.16
2022-12-18T06:38:29.147Z,-4.16
2022-12-18T06:41:32.190Z,-4.13
2022-12-18T06:44:35.051Z,-4.05
2022-12-18T06:47:38.042Z,-3.95
2022-12-18T06:50:43.678Z,-3.77
2022-12-18T06:53:46.746Z,-3.47
2022-12-18T06:56:49.449Z,-3.54
2022-12-18T06:59:53.678Z,-3.52
2022-12-18T07:02:56.544Z,-3.36
2022-12-18T07:05:59.456Z,-3.25
2022-12-18T07:09:02.434Z,-3.11
2022-12-18T07:12:06.088Z,-2.92
2022-12-18T07:15:09.284Z,-2.57
2022-12-18T07:18:12.067Z,-2.29
2022-12-18T07:21:18.061Z,-2.11
2022-12-18T07:24:20.802Z,-2.04
2022-12-18T07:27:24.036Z,-1.96
2022-12-18T07:30:27.418Z,-1.79
2022-12-18T07:33:30.149Z,-1.64
2022-12-18T07:36:33.709Z,-1.43
2022-12-18T07:39:36.486Z,-1.30
2022-12-18T07:42:39.578Z,-0.91
2022-12-18T07:45:43.548Z,0.37
2022-12-18T07:48:49.840Z,2.10
2022-12-18T07:51:56.080Z,3.48
2022-12-18T07:54:58.892Z,5.01
2022-12-18T07:58:03.551Z,6.08
2022-12-18T08:01:11.757Z,7.12
2022-12-18T08:04:14.750Z,7.56
2022-12-18T08:07:17.544Z,8.17
2022-12-18T08:10:21.399Z,8.93
2022-12-18T08:13:24.856Z,8.97
2022-12-18T08:16:27.904Z,8.38
2022-12-18T08:19:30.862Z,7.80
2022-12-18T08:22:38.936Z,9.00
2022-12-18T08:25:41.770Z,10.02
2022-12-18T08:28:45.471Z,11.10
2022-12-18T08:31:53.053Z,10.80
2022-12-18T08:34:55.891Z,10.30
2022-12-18T08:37:58.937Z,11.91
2022-12-18T08:41:07.098Z,11.71
2022-12-18T08:44:28.394Z,12.01
2022-12-18T08:47:31.243Z,12.27
2022-12-18T08:50:34.133Z,12.56
2022-12-18T08:53:38.118Z,12.20
2022-12-18T08:56:41.494Z,10.99
2022-12-18T08:59:44.381Z,10.79
2022-12-18T09:02:47.395Z,11.72
2022-12-18T09:05:50.289Z,12.24
2022-12-18T09:08:53.115Z,12.02
2022-12-18T09:11:56.200Z,12.39
2022-12-18T09:14:59.002Z,11.78
2022-12-18T09:18:01.815Z,11.52
2022-12-18T09:21:20.230Z,11.35
2022-12-18T09:24:26.343Z,12.56
2022-12-18T09:27:30.218Z,13.43
2022-12-18T09:30:35.309Z,13.39
2022-12-18T09:33:39.081Z,12.63
2022-12-18T09:36:42.000Z,12.33
2022-12-18T09:39:46.642Z,11.91
2022-12-18T09:43:00.554Z,12.64
2022-12-18T09:46:10.267Z,11.70
2022-12-18T09:49:17.641Z,12.61
2022-12-18T09:52:45.517Z,10.98
2022-12-18T09:55:50.168Z,12.30
2022-12-18T09:59:02.614Z,13.64
2022-12-18T10:02:22.465Z,14.01
2022-12-18T10:05:41.343Z,15.53
2022-12-18T10:09:05.053Z,15.47
2022-12-18T10:12:10.941Z,14.08
2022-12-18T10:15:25.631Z,15.56
2022-12-18T10:18:38.649Z,14.64
2022-12-18T10:22:00.398Z,11.60
2022-12-18T10:25:16.528Z,12.59
2022-12-18T10:28:21.689Z,13.35
2022-12-18T10:31:25.866Z,12.55
2022-12-18T10:34:28.660Z,11.25
2022-12-18T10:37:31.573Z,11.34
2022-12-18T10:40:53.376Z,12.15
2022-12-18T10:44:13.084Z,11.90
2022-12-18T10:47:20.074Z,13.56
2022-12-18T10:51:01.368Z,11.37
2022-12-18T10:54:16.031Z,13.15
2022-12-18T10:57:27.862Z,15.13
2022-12-18T11:00:31.953Z,15.27
2022-12-18T11:03:38.510Z,13.31
2022-12-18T11:07:04.135Z,12.65
2022-12-18T11:10:17.361Z,11.38
2022-12-18T11:13:23.337Z,10.83
2022-12-18T11:16:27.791Z,12.25
2022-12-18T11:19:38.050Z,13.41
2022-12-18T11:22:41.332Z,13.77
2022-12-18T11:25:53.660Z,13.77
2022-12-18T11:29:12.151Z,14.94
2022-12-18T11:32:30.696Z,12.41
2022-12-18T11:35:51.942Z,12.06
2022-12-18T11:38:56.922Z,12.84
2022-12-18T11:42:15.442Z,11.06
2022-12-18T11:45:28.288Z,10.78
2022-12-18T11:48:47.782Z,8.49
2022-12-18T11:52:11.832Z,9.37
2022-12-18T11:55:17.544Z,9.72
2022-12-18T11:58:29.362Z,9.53
2022-12-18T12:01:44.929Z,9.16
2022-12-18T12:04:52.300Z,10.29
2022-12-18T12:08:07.323Z,8.85
2022-12-18T12:11:31.668Z,7.86
2022-12-18T12:14:53.158Z,8.94
2022-12-18T12:18:23.949Z,9.15
2022-12-18T12:21:35.880Z,9.24
2022-12-18T12:25:09.821Z,8.00
2022-12-18T12:28:15.744Z,7.05
2022-12-18T12:31:23.965Z,5.37
2022-12-18T12:34:54.818Z,5.89
2022-12-18T12:38:12.393Z,5.25
2022-12-18T12:41:38.801Z,5.58
2022-12-18T12:44:52.738Z,6.84
2022-12-18T12:48:00.815Z,4.65
2022-12-18T12:51:11.327Z,5.03
2022-12-18T12:54:25.890Z,4.12
2022-12-18T12:57:57.602Z,4.48
2022-12-18T13:01:28.637Z,3.74
2022-12-18T13:05:05.841Z,4.17
2022-12-18T13:08:11.221Z,2.80
2022-12-18T13:12:01.444Z,2.82
2022-12-18T13:15:36.764Z,2.61
2022-12-18T13:18:59.927Z,3.20
2022-12-18T13:22:02.759Z,2.29
2022-12-18T13:25:36.257Z,1.99
2022-12-18T13:28:48.818Z,1.85
2022-12-18T13:31:59.313Z,1.36
2022-12-18T13:35:21.050Z,1.12
2022-12-18T13:38:35.009Z,1.12
2022-12-18T13:41:38.075Z,0.78
2022-12-18T13:44:42.519Z,0.75
2022-12-18T13:47:45.362Z,0.61
2022-12-18T13:51:18.897Z,0.58
2022-12-18T13:54:38.651Z,0.29
2022-12-18T13:57:42.217Z,0.59
2022-12-18T14:00:45.765Z,0.63
2022-12-18T14:03:49.523Z,0.24
2022-12-18T14:07:05.284Z,0.32
2022-12-18T14:10:44.305Z,0.44
2022-12-18T14:13:43.112Z,0.35
2022-12-18T14:16:48.185Z,0.17
2022-12-18T14:19:52.809Z,0.12
2022-12-18T14:22:57.355Z,-0.01
2022-12-18T14:26:06.006Z,-0.02
2022-12-18T14:29:29.794Z,0.01
2022-12-18T14:32:32.737Z,-0.37
2022-12-18T14:35:44.962Z,-0.58
2022-12-18T14:38:56.313Z,-0.71
2022-12-18T14:41:59.171Z,-0.96
2022-12-18T14:45:43.323Z,-1.05
2022-12-18T14:48:48.900Z,-1.15
2022-12-18T14:51:55.249Z,-1.23
2022-12-18T14:54:58.413Z,-1.34
2022-12-18T14:58:01.245Z,-1.42
2022-12-18T15:01:04.209Z,-1.48
2022-12-18T15:04:24.048Z,-1.53
2022-12-18T15:07:27.310Z,-1.55
2022-12-18T15:10:32.759Z,-1.67
2022-12-18T15:13:35.912Z,-1.70
2022-12-18T15:16:42.244Z,-1.71
2022-12-18T15:19:52.526Z,-1.88
2022-12-18T15:22:55.725Z,-1.99
2022-12-18T15:26:01.683Z,-1.90
2022-12-18T15:29:04.535Z,-1.94
2022-12-18T15:32:20.458Z,-1.85
2022-12-18T15:35:25.626Z,-1.75
2022-12-18T15:38:28.732Z,-1.74
2022-12-18T15:41:35.778Z,-1.63
2022-12-18T15:44:39.589Z,-1.36
2022-12-18T15:47:45.790Z,-1.28
2022-12-18T15:50:49.553Z,-1.33
2022-12-18T15:53:55.665Z,-1.17
2022-12-18T15:57:18.256Z,-1.09
2022-12-18T16:00:21.365Z,-0.93
2022-12-18T16:03:24.561Z,-0.91
2022-12-18T16:06:40.312Z,-1.11
2022-12-18T16:09:52.142Z,-1.24
2022-12-18T16:12:55.306Z,-1.21
2022-12-18T16:15:58.785Z,-1.27
2022-12-18T16:19:02.004Z,-1.30
2022-12-18T16:22:07.151Z,-1.51
2022-12-18T16:25:23.251Z,-1.46
2022-12-18T16:28:26.285Z,-1.47
2022-12-18T16:31:29.402Z,-1.39
2022-12-18T16:34:35.874Z,-1.45
2022-12-18T16:37:40.082Z,-1.51
2022-12-18T16:41:03.207Z,-1.64
2022-12-18T16:44:07.430Z,-1.61
2022-12-18T16:47:11.769Z,-1.46
2022-12-18T16:50:18.788Z,-1.43
2022-12-18T16:53:21.888Z,-1.68
2022-12-18T16:56:25.669Z,-1.74
2022-12-18T16:59:29.388Z,-1.96
2022-12-18T17:02:33.745Z,-1.80
2022-12-18T17:05:36.988Z,-1.82
2022-12-18T17:08:40.100Z,-1.71
2022-12-18T17:11:44.058Z,-1.75
2022-12-18T17:14:47.171Z,-1.86
2022-12-18T17:17:51.246Z,-1.78
2022-12-18T17:20:59.551Z,-1.64
2022-12-18T17:24:03.110Z,-1.57
2022-12-18T17:27:06.394Z,-1.75
2022-12-18T17:30:10.852Z,-1.80
2022-12-18T17:33:14.109Z,-1.76
2022-12-18T17:36:17.938Z,-1.65
2022-12-18T17:39:22.215Z,-1.47
2022-12-18T17:42:26.478Z,-1.56
2022-12-18T17:45:29.311Z,-1.77
2022-12-18T17:48:33.945Z,-1.88
2022-12-18T17:51:37.140Z,-1.79
2022-12-18T17:54:42.335Z,-1.54
2022-12-18T17:57:46.585Z,-1.69
2022-12-18T18:00:50.091Z,-1.84
2022-12-18T18:03:56.142Z,-2.01
2022-12-18T18:06:59.234Z,-2.15
2022-12-18T18:10:04.074Z,-2.21
2022-12-18T18:13:46.625Z,-2.35
2022-12-18T18:16:52.644Z,-2.58
2022-12-18T18:19:55.676Z,-2.70
2022-12-18T18:22:59.608Z,-2.80
2022-12-18T18:26:05.203Z,-2.90
2022-12-18T18:29:12.258Z,-2.95
2022-12-18T18:32:15.578Z,-2.96
2022-12-18T18:35:45.092Z,-3.04
2022-12-18T18:38:46.710Z,-3.10
2022-12-18T18:41:51.989Z,-3.15
2022-12-18T18:44:55.139Z,-3.20
2022-12-18T18:47:59.198Z,-3.23
2022-12-18T18:51:08.133Z,-3.34
2022-12-18T18:54:11.689Z,-3.40
2022-12-18T18:57:24.239Z,-3.41
2022-12-18T19:00:29.059Z,-3.43
2022-12-18T19:03:33.453Z,-3.41
2022-12-18T19:06:36.485Z,-3.45
2022-12-18T19:09:40.448Z,-3.52
2022-12-18T19:13:01.825Z,-3.56
2022-12-18T19:16:08.028Z,-3.52
2022-12-18T19:19:13.194Z,-3.52
2022-12-18T19:22:16.461Z,-3.55
2022-12-18T19:25:19.686Z,-3.49
2022-12-18T19:28:32.093Z,-3.54
2022-12-18T19:31:37.126Z,-3.66
2022-12-18T19:34:40.559Z,-3.63
2022-12-18T19:37:43.818Z,-3.55
2022-12-18T19:40:46.893Z,-3.47
2022-12-18T19:43:51.478Z,-3.52
2022-12-18T19:46:54.554Z,-3.53
2022-12-18T19:49:57.626Z,-3.63
2022-12-18T19:53:01.114Z,-3.63
2022-12-18T19:56:09.328Z,-3.66
2022-12-18T19:59:12.937Z,-3.72
2022-12-18T20:02:15.942Z,-3.76
2022-12-18T20:05:25.122Z,-3.84
2022-12-18T20:08:28.150Z,-3.85
2022-12-18T20:11:32.153Z,-3.80
2022-12-18T20:14:35.818Z,-3.78
2022-12-18T20:17:39.332Z,-3.92
2022-12-18T20:20:42.155Z,-3.84
2022-12-18T20:23:45.694Z,-3.89
2022-12-18T20:26:48.901Z,-3.89
2022-12-18T20:29:52.071Z,-3.89
2022-12-18T20:32:55.178Z,-3.89
2022-12-18T20:36:21.350Z,-3.88
2022-12-18T20:39:27.648Z,-3.89
2022-12-18T20:42:31.422Z,-3.92
2022-12-18T20:45:34.382Z,-3.94
2022-12-18T20:48:39.083Z,-3.93
2022-12-18T20:51:42.054Z,-3.98
2022-12-18T20:54:45.112Z,-4.01
2022-12-18T20:57:48.554Z,-3.99
2022-12-18T21:01:02.446Z,-4.07
2022-12-18T21:04:05.659Z,-4.08
2022-12-18T21:07:08.705Z,-4.13
2022-12-18T21:10:11.761Z,-4.08
2022-12-18T21:13:14.529Z,-4.00
2022-12-18T21:16:19.449Z,-4.02
2022-12-18T21:19:25.585Z,-4.06
2022-12-18T21:22:28.918Z,-4.01
2022-12-18T21:25:31.790Z,-4.01
2022-12-18T21:28:34.617Z,-4.08
2022-12-18T21:31:39.334Z,-4.07
2022-12-18T21:34:47.850Z,-4.01
2022-12-18T21:37:51.091Z,-4.02
2022-12-18T21:40:54.005Z,-3.96
2022-12-18T21:44:06.089Z,-3.89
2022-12-18T21:47:21.848Z,-3.83
2022-12-18T21:50:26.190Z,-3.73
2022-12-18T21:53:28.966Z,-3.61
2022-12-18T21:56:44.110Z,-3.51
2022-12-18T21:59:46.908Z,-3.46
2022-12-18T22:03:17.547Z,-3.38
2022-12-18T22:06:13.022Z,-3.24
2022-12-18T22:09:19.292Z,-3.16
2022-12-18T22:12:35.831Z,-3.07
2022-12-18T22:15:47.000Z,-2.96
2022-12-18T22:18:49.962Z,-2.88
2022-12-18T22:21:53.286Z,-2.71
2022-12-18T22:24:56.137Z,-2.56
2022-12-18T22:28:17.658Z,-2.44
2022-12-18T22:31:20.496Z,-2.46
2022-12-18T22:34:23.513Z,-2.40
2022-12-18T22:37:26.491Z,-2.54
2022-12-18T22:40:29.924Z,-2.47
2022-12-18T22:43:33.517Z,-2.47
2022-12-18T22:46:39.433Z,-2.33
2022-12-18T22:49:42.417Z,-2.24
2022-12-18T22:52:45.212Z,-2.21
2022-12-18T22:55:48.064Z,-2.31
2022-12-18T22:58:51.837Z,-2.50
2022-12-18T23:01:59.104Z,-2.58
2022-12-18T23:05:02.523Z,-2.51
2022-12-18T23:08:05.392Z,-2.42
2022-12-18T23:11:08.967Z,-2.38
2022-12-18T23:14:12.370Z,-2.44
2022-12-18T23:17:15.186Z,-2.28
2022-12-18T23:20:17.942Z,-2.42
2022-12-18T23:23:20.708Z,-2.31
2022-12-18T23:26:25.860Z,-2.30
2022-12-18T23:29:28.586Z,-2.42
2022-12-18T23:32:31.424Z,-2.48
2022-12-18T23:35:35.819Z,-2.26
2022-12-18T23:38:38.977Z,-2.34
2022-12-18T23:41:41.718Z,-2.29
2022-12-18T23:44:44.426Z,-2.38
2022-12-18T23:47:48.265Z,-2.14
2022-12-18T23:50:54.168Z,-2.25
2022-12-18T23:53:59.256Z,-2.46
2022-12-18T23:57:02.234Z,-2.35
